Time;durP1;ratioP1;P1;durP2;ratioP2;P2;SDS_P1;SDS_P2;PMS_P1;PMS_P2;Temp;Humidity;BMP_temperature;BMP_pressure;BME280_temperature;BME280_humidity;BME280_pressure;Samples;Min_cycle;Max_cycle;Signal;HPM_P1;HPM_P2
2020/12/18 00:02:03;;;;;;;54.83;29.33;;;;;;;5.28;70.87;100922.87;124508;1098;104577;-76
2020/12/18 00:04:31;;;;;;;50.23;28.70;;;;;;;5.28;70.34;100920.22;124440;1098;104541;-76
2020/12/18 00:06:59;;;;;;;48.15;28.55;;;;;;;5.31;71.15;100921.80;124506;1097;104538;-76
2020/12/18 00:09:28;;;;;;;55.13;30.53;;;;;;;5.34;70.81;100923.41;124466;1098;104586;-76
2020/12/18 00:11:56;;;;;;;54.87;30.77;;;;;;;5.36;70.50;100927.64;124403;1097;104567;-78
2020/12/18 00:14:24;;;;;;;57.57;31.20;;;;;;;5.37;70.30;100925.84;124411;1097;104592;-77
2020/12/18 00:16:52;;;;;;;68.25;37.90;;;;;;;5.37;70.96;100932.00;124445;1097;104500;-76
2020/12/18 00:19:20;;;;;;;55.20;31.63;;;;;;;5.37;70.46;100931.13;124481;1098;104599;-77
2020/12/18 00:21:48;;;;;;;59.47;32.90;;;;;;;5.34;71.24;100920.77;124491;1097;104673;-78
2020/12/18 00:24:16;;;;;;;64.67;36.27;;;;;;;5.30;70.78;100922.77;124413;1097;104571;-76
2020/12/18 00:26:44;;;;;;;49.60;29.00;;;;;;;5.29;70.55;100921.06;124444;1098;104523;-77
2020/12/18 00:29:12;;;;;;;48.17;26.40;;;;;;;5.25;70.62;100923.09;124467;1097;104510;-76
2020/12/18 00:31:40;;;;;;;52.77;30.37;;;;;;;5.28;71.11;100922.03;124445;1097;104637;-77
2020/12/18 00:34:09;;;;;;;47.40;26.63;;;;;;;5.28;70.98;100922.87;124439;1098;104573;-76
2020/12/18 00:36:37;;;;;;;48.27;26.70;;;;;;;5.29;71.01;100915.77;124428;1097;104564;-75
2020/12/18 00:39:07;;;;;;;48.27;27.77;;;;;;;5.30;70.92;100915.67;124464;1097;104577;-76
2020/12/18 00:41:35;;;;;;;47.23;25.73;;;;;;;5.34;70.91;100918.13;124543;1098;104516;-75
2020/12/18 00:44:03;;;;;;;50.87;29.87;;;;;;;5.34;70.63;100918.97;124422;1098;104543;-76
2020/12/18 00:46:31;;;;;;;52.40;29.80;;;;;;;5.35;70.25;100917.16;124377;1097;104567;-75
2020/12/18 00:48:59;;;;;;;52.05;28.55;;;;;;;5.32;70.73;100918.22;124433;1097;104618;-76
2020/12/18 00:51:28;;;;;;;44.87;25.83;;;;;;;5.26;70.53;100915.99;124364;1098;104615;-77
2020/12/18 00:53:56;;;;;;;43.13;25.13;;;;;;;5.21;70.38;100915.44;124414;1098;104576;-76
2020/12/18 00:56:25;;;;;;;46.90;26.77;;;;;;;5.17;71.03;100921.89;124362;1098;104487;-77
2020/12/18 00:58:53;;;;;;;46.03;27.23;;;;;;;5.16;70.44;100928.98;124314;1097;105076;-77
2020/12/18 01:01:22;;;;;;;46.60;27.00;;;;;;;5.19;70.71;100917.34;124360;1098;104682;-76
2020/12/18 01:03:50;;;;;;;46.50;27.80;;;;;;;5.19;70.39;100917.34;124447;1097;105066;-77
2020/12/18 01:06:20;;;;;;;50.03;27.87;;;;;;;5.19;70.85;100912.05;124420;1098;104506;-76
2020/12/18 01:08:56;;;;;;;47.30;28.37;;;;;;;5.17;70.70;100924.53;124421;1098;104599;-78
2020/12/18 01:11:27;;;;;;;46.83;28.15;;;;;;;5.15;70.60;100916.70;124439;1098;104608;-77
2020/12/18 01:13:56;;;;;;;45.53;26.97;;;;;;;5.13;70.42;100904.53;124400;1098;104593;-77
2020/12/18 01:16:24;;;;;;;40.30;23.37;;;;;;;5.08;70.38;100915.39;124383;1098;104490;-77
2020/12/18 01:18:58;;;;;;;37.37;22.57;;;;;;;5.05;70.45;100921.75;124487;1098;104570;-77
2020/12/18 01:21:26;;;;;;;40.93;24.20;;;;;;;5.06;70.60;100920.81;124482;1098;104640;-75
2020/12/18 01:23:54;;;;;;;41.90;25.33;;;;;;;5.07;70.45;100922.49;124433;1098;104669;-77
2020/12/18 01:26:23;;;;;;;46.90;27.35;;;;;;;5.07;70.73;100924.30;124374;1098;104484;-79
2020/12/18 01:28:51;;;;;;;45.00;27.00;;;;;;;5.09;70.48;100922.39;124440;1097;104518;-77
2020/12/18 01:31:20;;;;;;;46.97;27.00;;;;;;;5.10;70.73;100914.36;124453;1098;104817;-78
2020/12/18 01:33:51;;;;;;;43.83;25.60;;;;;;;5.06;70.18;100918.16;124455;1097;104509;-77
2020/12/18 01:36:24;;;;;;;44.20;26.33;;;;;;;5.07;70.82;100913.72;124402;1098;104538;-77
2020/12/18 01:38:56;;;;;;;37.20;21.80;;;;;;;5.04;70.69;100920.07;124322;1098;104660;-77
2020/12/18 01:41:24;;;;;;;36.67;21.40;;;;;;;5.07;70.95;100927.78;124443;1098;104644;-77
2020/12/18 01:43:52;;;;;;;39.40;23.27;;;;;;;5.10;70.71;100924.11;124459;1098;104615;-77
2020/12/18 01:46:26;;;;;;;36.73;19.80;;;;;;;5.14;70.90;100930.89;124497;1098;104517;-77
2020/12/18 01:48:55;;;;;;;38.87;22.43;;;;;;;5.18;70.73;100920.95;124443;1098;104584;-76
2020/12/18 01:51:24;;;;;;;41.97;25.50;;;;;;;5.20;70.75;100925.19;124611;1098;105038;-77
2020/12/18 01:53:53;;;;;;;41.85;24.75;;;;;;;5.23;70.24;100929.41;124484;1098;104517;-78
2020/12/18 01:56:41;;;;;;;37.37;23.30;;;;;;;5.24;70.83;100931.96;124344;1098;104538;-76
2020/12/18 01:59:15;;;;;;;43.20;25.55;;;;;;;5.25;70.78;100938.97;124387;1097;105023;-77
2020/12/18 02:02:11;;;;;;;40.90;24.80;;;;;;;5.23;70.95;100935.55;124455;1098;104634;-78
2020/12/18 02:04:45;;;;;;;35.27;18.67;;;;;;;5.23;71.23;100929.41;124431;1097;104522;-77
2020/12/18 02:07:22;;;;;;;31.83;18.87;;;;;;;5.23;70.32;100924.13;124428;1097;104561;-76
2020/12/18 02:10:20;;;;;;;32.70;20.07;;;;;;;5.24;71.05;100929.31;124403;1098;104509;-76
2020/12/18 02:12:48;;;;;;;33.75;21.00;;;;;;;5.29;70.16;100934.29;124479;1097;104650;-76
2020/12/18 02:15:18;;;;;;;34.07;20.20;;;;;;;5.31;70.54;100930.61;124427;1097;104545;-75
2020/12/18 02:18:05;;;;;;;35.57;21.50;;;;;;;5.36;70.83;100940.03;124441;1098;104721;-76
2020/12/18 02:20:35;;;;;;;33.70;21.00;;;;;;;5.36;70.48;100935.58;124365;1098;104484;-78
2020/12/18 02:23:04;;;;;;;36.03;21.00;;;;;;;5.35;70.58;100928.61;124382;1097;104612;-76
2020/12/18 02:25:40;;;;;;;32.30;18.73;;;;;;;5.34;71.03;100932.20;124443;1097;104629;-77
2020/12/18 02:28:09;;;;;;;28.27;17.03;;;;;;;5.30;70.74;100936.00;124460;1097;104567;-79
2020/12/18 02:30:38;;;;;;;27.63;16.13;;;;;;;5.29;70.42;100944.88;124432;1098;104513;-78
2020/12/18 02:33:18;;;;;;;28.70;18.13;;;;;;;5.28;70.70;100933.45;124368;1098;104688;-78
2020/12/18 02:35:54;;;;;;;31.30;19.40;;;;;;;5.33;70.50;100935.78;124400;1098;104596;-77
2020/12/18 02:38:23;;;;;;;29.30;18.85;;;;;;;5.39;70.96;100939.81;124390;1097;104496;-78
2020/12/18 02:40:52;;;;;;;32.30;20.20;;;;;;;5.41;70.38;100945.85;124454;1098;104519;-77
2020/12/18 02:43:59;;;;;;;31.57;19.00;;;;;;;5.43;70.69;100941.33;123898;1101;104724;-77
2020/12/18 02:46:27;;;;;;;31.27;20.00;;;;;;;5.42;70.77;100940.46;123874;1100;104791;-77
2020/12/18 02:48:57;;;;;;;30.67;19.73;;;;;;;5.43;70.38;100943.98;124185;1098;104744;-77
2020/12/18 02:51:44;;;;;;;28.70;17.13;;;;;;;5.42;70.37;100943.11;124422;1098;104570;-78
2020/12/18 02:54:32;;;;;;;25.10;16.33;;;;;;;5.47;70.33;100946.30;124438;1098;104509;-78
2020/12/18 02:57:35;;;;;;;29.63;17.67;;;;;;;5.54;70.55;100952.02;124406;1098;105044;-79
2020/12/18 03:00:32;;;;;;;29.03;18.00;;;;;;;5.57;70.38;100945.69;124415;1098;104623;-76
2020/12/18 03:03:00;;;;;;;30.37;18.43;;;;;;;5.59;70.11;100946.43;124456;1098;104484;-76
2020/12/18 03:05:32;;;;;;;31.77;18.45;;;;;;;5.60;70.01;100942.81;124505;1098;104587;-76
2020/12/18 03:08:09;;;;;;;30.70;17.87;;;;;;;5.61;70.34;100945.36;124502;1098;104498;-76
2020/12/18 03:10:37;;;;;;;30.95;19.90;;;;;;;5.63;70.09;100953.20;124478;1097;104560;-73
2020/12/18 03:13:05;;;;;;;30.67;19.57;;;;;;;5.62;70.52;100951.50;124471;1098;104606;-75
2020/12/18 03:15:35;;;;;;;32.50;19.83;;;;;;;5.57;70.29;100950.98;124486;1098;104670;-76
2020/12/18 03:18:27;;;;;;;25.62;16.85;;;;;;;5.53;70.38;100954.80;124519;1098;104496;-77
2020/12/18 03:20:57;;;;;;;26.40;16.75;;;;;;;5.53;70.13;100947.69;124399;1097;104529;-73
2020/12/18 03:23:40;;;;;;;30.80;19.03;;;;;;;5.53;70.97;100952.98;124392;1098;104497;-76
2020/12/18 03:26:31;;;;;;;29.73;19.80;;;;;;;5.57;70.05;100954.47;124348;1098;104962;-76
2020/12/18 03:29:06;;;;;;;29.23;18.80;;;;;;;5.59;70.00;100954.38;124391;1097;105031;-76
2020/12/18 03:31:35;;;;;;;34.43;20.40;;;;;;;5.60;70.66;100964.86;124430;1098;104588;-75
2020/12/18 03:34:03;;;;;;;34.30;20.57;;;;;;;5.61;70.72;100965.70;124325;1098;104605;-75
2020/12/18 03:36:40;;;;;;;32.00;19.47;;;;;;;5.58;70.96;100961.48;124593;1098;104675;-74
2020/12/18 03:39:13;;;;;;;34.50;21.10;;;;;;;5.57;70.79;100970.36;124576;1097;104571;-75
2020/12/18 03:41:57;;;;;;;28.95;17.50;;;;;;;5.54;70.96;100975.00;124485;1098;105063;-77
2020/12/18 03:44:26;;;;;;;26.67;16.60;;;;;;;5.51;70.76;100963.67;124547;1098;104595;-74
2020/12/18 03:46:55;;;;;;;30.27;19.20;;;;;;;5.52;70.59;100964.51;124549;1090;104659;-75
2020/12/18 03:49:42;;;;;;;33.53;19.33;;;;;;;5.54;70.96;100961.77;124324;1098;104569;-76
2020/12/18 03:52:10;;;;;;;33.70;20.05;;;;;;;5.55;71.04;100958.19;124430;1098;104544;-76
2020/12/18 03:54:44;;;;;;;35.67;20.60;;;;;;;5.59;71.12;100959.67;124393;1098;104622;-73
2020/12/18 03:57:31;;;;;;;36.53;21.03;;;;;;;5.56;70.11;100959.86;124491;1098;104768;-74
2020/12/18 04:00:07;;;;;;;36.77;21.70;;;;;;;5.57;71.11;100954.47;124498;1098;104629;-72
2020/12/18 04:02:41;;;;;;;37.60;22.33;;;;;;;5.57;70.50;100958.92;124575;1098;104906;-75
2020/12/18 04:05:10;;;;;;;33.10;19.67;;;;;;;5.53;70.63;100962.73;124491;1098;104935;-74
2020/12/18 04:07:40;;;;;;;29.73;16.87;;;;;;;5.54;70.52;100959.12;124450;1098;104663;-75
2020/12/18 04:10:17;;;;;;;35.73;20.43;;;;;;;5.54;70.89;100964.41;124501;1098;104628;-74
2020/12/18 04:12:58;;;;;;;38.57;20.57;;;;;;;5.53;71.15;100963.58;124521;1098;104596;-74
2020/12/18 04:15:26;;;;;;;43.10;23.27;;;;;;;5.54;71.14;100954.66;124434;1098;104611;-76
2020/12/18 04:17:54;;;;;;;36.40;21.75;;;;;;;5.57;71.00;100958.92;124585;1098;104669;-74
2020/12/18 04:20:23;;;;;;;40.40;22.17;;;;;;;5.58;71.09;100964.12;124471;1098;104606;-77
2020/12/18 04:23:11;;;;;;;41.13;22.97;;;;;;;5.61;71.13;100965.70;124393;1098;104596;-77
2020/12/18 04:26:01;;;;;;;;;;;;;;;5.60;71.60;100961.34;124534;1098;104597;-76
2020/12/18 04:28:29;;;;;;;33.97;18.43;;;;;;;5.61;71.49;100961.25;124484;1098;104700;-75
2020/12/18 04:30:58;;;;;;;38.30;21.03;;;;;;;5.65;70.96;100964.54;124452;1098;104577;-76
2020/12/18 04:33:27;;;;;;;40.20;20.50;;;;;;;5.66;71.00;100963.61;124414;1098;104576;-76
2020/12/18 04:35:55;;;;;;;41.87;21.57;;;;;;;5.69;70.81;100968.67;124305;1099;104586;-77
2020/12/18 04:38:30;;;;;;;40.80;23.07;;;;;;;5.74;71.33;100963.92;124558;1090;104641;-79
2020/12/18 04:41:05;;;;;;;38.47;22.07;;;;;;;5.79;71.67;100959.14;124447;1098;104520;-76
2020/12/18 04:43:43;;;;;;;43.10;23.10;;;;;;;5.76;71.08;100964.66;124474;1098;104936;-75
2020/12/18 04:46:21;;;;;;;47.77;24.77;;;;;;;5.73;70.73;100964.02;124495;1098;104580;-76
2020/12/18 04:48:50;;;;;;;37.05;22.10;;;;;;;5.68;71.79;100974.94;124473;1098;104931;-77
2020/12/18 04:51:21;;;;;;;34.20;18.90;;;;;;;5.65;71.40;100967.19;124411;1098;104516;-77
2020/12/18 04:53:57;;;;;;;41.43;22.23;;;;;;;5.64;70.99;100961.05;124403;1098;104506;-77
2020/12/18 04:56:42;;;;;;;42.63;22.73;;;;;;;5.70;71.88;100965.09;124421;1098;104519;-77
2020/12/18 04:59:34;;;;;;;71.83;42.53;;;;;;;5.74;72.10;100955.98;124269;1098;104973;-77
2020/12/18 05:02:18;;;;;;;64.43;39.53;;;;;;;5.81;71.85;100965.21;124235;1098;104688;-79
2020/12/18 05:04:47;;;;;;;;;;;;;;;5.81;71.52;100966.98;123965;1100;104685;-77
2020/12/18 05:07:38;;;;;;;229.97;132.33;;;;;;;5.77;71.48;100970.80;124182;1098;104755;-77
2020/12/18 05:10:09;;;;;;;108.70;60.93;;;;;;;5.74;71.05;100977.16;123934;1098;104749;-78
2020/12/18 05:12:54;;;;;;;118.33;72.80;;;;;;;5.74;72.12;100974.52;124288;1098;104600;-77
2020/12/18 05:15:29;;;;;;;76.80;43.63;;;;;;;5.73;71.76;100978.09;123939;1100;105050;-78
2020/12/18 05:18:15;;;;;;;164.20;99.87;;;;;;;5.75;71.96;100981.48;124269;1098;104599;-76
2020/12/18 05:20:44;;;;;;;115.13;66.57;;;;;;;5.79;72.42;100985.63;124278;1098;104752;-77
2020/12/18 05:23:39;;;;;;;108.00;63.97;;;;;;;5.83;71.43;100984.48;124222;1098;104596;-77
2020/12/18 05:26:26;;;;;;;104.23;60.10;;;;;;;5.84;71.19;100980.03;124295;1098;104647;-77
2020/12/18 05:29:04;;;;;;;73.73;40.10;;;;;;;5.82;71.46;100974.83;124431;1098;104609;-78
2020/12/18 05:31:34;;;;;;;51.03;28.83;;;;;;;5.87;71.57;100978.03;124336;1098;105093;-77
2020/12/18 05:34:23;;;;;;;51.97;32.33;;;;;;;5.90;71.69;100982.25;124394;1100;104698;-77
2020/12/18 05:37:02;;;;;;;49.87;28.87;;;;;;;5.96;71.69;100992.45;124417;1098;104683;-77
2020/12/18 05:40:00;;;;;;;40.70;23.97;;;;;;;6.00;71.58;100995.75;123909;1099;104673;-77
2020/12/18 05:42:50;;;;;;;;;;;;;;;5.99;71.32;100997.55;124234;1098;104493;-78
2020/12/18 05:45:28;;;;;;;42.73;25.03;;;;;;;5.99;71.14;100999.36;124423;1098;104938;-77
2020/12/18 05:48:26;;;;;;;195.13;79.27;;;;;;;6.02;71.74;101005.27;124352;1098;105035;-78
2020/12/18 05:51:00;;;;;;;56.70;26.65;;;;;;;6.04;71.56;101005.17;124454;1098;104557;-77
2020/12/18 05:53:30;;;;;;;44.27;22.73;;;;;;;6.05;71.08;101007.73;124519;1098;104565;-77
2020/12/18 05:56:32;;;;;;;149.10;78.00;;;;;;;6.05;71.26;101010.37;124302;1098;104641;-76
2020/12/18 05:59:08;;;;;;;67.40;36.90;;;;;;;6.08;72.27;101009.30;124278;1098;104710;-78
2020/12/18 06:02:03;;;;;;;42.80;25.10;;;;;;;6.10;71.81;101012.70;124375;1098;104672;-77
2020/12/18 06:05:01;;;;;;;44.85;26.20;;;;;;;6.08;71.89;101006.66;124309;1099;104673;-77
2020/12/18 06:07:42;;;;;;;51.07;33.27;;;;;;;6.12;71.80;101023.20;124324;1099;104698;-78
2020/12/18 06:10:19;;;;;;;38.63;23.30;;;;;;;6.13;71.68;101024.91;124314;1098;104740;-77
2020/12/18 06:13:06;;;;;;;40.37;24.77;;;;;;;6.14;71.44;101030.11;124395;1099;104599;-77
2020/12/18 06:15:55;;;;;;;40.35;23.70;;;;;;;6.18;71.67;101026.29;124279;1098;104854;-77
2020/12/18 06:18:38;;;;;;;69.97;43.57;;;;;;;6.17;71.20;101029.87;124262;1099;104726;-78
2020/12/18 06:21:12;;;;;;;44.13;26.90;;;;;;;6.15;71.72;101034.44;124342;1098;104656;-76
2020/12/18 06:23:45;;;;;;;41.83;25.07;;;;;;;6.14;72.30;101043.36;124269;1098;104707;-78
2020/12/18 06:26:32;;;;;;;48.63;27.77;;;;;;;6.14;72.29;101040.70;124304;1098;105025;-77
2020/12/18 06:29:17;;;;;;;43.42;25.00;;;;;;;6.17;72.32;101044.94;124439;1098;104603;-78
2020/12/18 06:32:24;;;;;;;35.27;21.17;;;;;;;6.17;71.69;101053.73;124420;1098;104552;-78
2020/12/18 06:35:33;;;;;;;51.17;32.57;;;;;;;6.18;72.27;101044.84;123818;1101;104672;-78
2020/12/18 06:38:27;;;;;;;41.65;25.75;;;;;;;6.22;72.03;101051.62;123903;1101;104752;-77
2020/12/18 06:41:23;;;;;;;40.60;23.53;;;;;;;6.24;71.90;101052.36;124397;1098;104542;-77
2020/12/18 06:44:33;;;;;;;44.23;27.73;;;;;;;6.27;72.38;101059.24;124455;1098;104487;-78
2020/12/18 06:47:21;;;;;;;41.67;25.07;;;;;;;6.29;71.27;101059.98;124305;1098;104602;-78
2020/12/18 06:50:10;;;;;;;39.93;24.47;;;;;;;6.30;72.01;101066.99;124427;1098;104625;-76
2020/12/18 06:53:16;;;;;;;43.00;24.43;;;;;;;6.31;71.71;101065.19;124239;1098;104819;-76
2020/12/18 06:55:55;;;;;;;38.17;22.73;;;;;;;6.31;71.29;101065.19;124502;1098;104570;-76
2020/12/18 06:58:40;;;;;;;35.03;19.90;;;;;;;6.35;72.60;101069.31;124447;1098;104573;-76
2020/12/18 07:01:08;;;;;;;44.20;27.40;;;;;;;6.38;72.42;101071.77;124772;1098;104657;-77
2020/12/18 07:03:44;;;;;;;74.25;42.75;;;;;;;6.42;72.48;101078.55;124540;1098;104599;-76
2020/12/18 07:06:21;;;;;;;44.33;26.37;;;;;;;6.46;72.35;101080.87;124445;1098;104517;-76
2020/12/18 07:08:50;;;;;;;44.67;25.20;;;;;;;6.51;71.87;101077.92;124428;1098;104586;-77
2020/12/18 07:11:19;;;;;;;40.37;24.13;;;;;;;6.54;72.32;101077.69;124314;1098;104612;-78
2020/12/18 07:13:53;;;;;;;49.80;31.10;;;;;;;6.53;72.44;101081.31;124407;1098;104497;-76
2020/12/18 07:16:26;;;;;;;42.93;26.62;;;;;;;6.53;72.41;101070.70;124461;1098;104516;-77
2020/12/18 07:18:58;;;;;;;36.07;22.13;;;;;;;6.53;71.59;101078.66;124493;1098;104557;-76
2020/12/18 07:21:26;;;;;;;33.43;20.67;;;;;;;6.54;71.70;101080.34;124560;1098;104513;-76
2020/12/18 07:23:54;;;;;;;34.97;21.77;;;;;;;6.57;72.29;101082.79;124399;1098;104563;-77
2020/12/18 07:26:22;;;;;;;38.20;22.90;;;;;;;6.59;71.57;101088.83;124449;1098;104579;-76
2020/12/18 07:28:51;;;;;;;39.13;24.67;;;;;;;6.63;72.60;101092.96;124427;1098;104541;-76
2020/12/18 07:31:20;;;;;;;38.20;24.73;;;;;;;6.60;72.12;101087.89;124475;1098;104664;-76
2020/12/18 07:33:52;;;;;;;51.30;31.23;;;;;;;6.59;71.54;101088.83;124411;1098;104515;-78
2020/12/18 07:36:21;;;;;;;41.50;25.75;;;;;;;6.57;71.05;101095.20;124435;1098;104640;-76
2020/12/18 07:38:51;;;;;;;37.10;23.77;;;;;;;6.57;72.34;101095.20;124479;1098;104637;-76
2020/12/18 07:41:19;;;;;;;38.00;23.43;;;;;;;6.56;71.22;101096.98;124420;1098;105168;-77
2020/12/18 07:43:48;;;;;;;42.00;27.13;;;;;;;6.55;72.31;101095.31;124401;1098;104650;-76
2020/12/18 07:46:19;;;;;;;49.37;31.40;;;;;;;6.57;72.78;101103.16;124439;1098;104602;-77
2020/12/18 07:48:48;;;;;;;48.45;29.65;;;;;;;6.60;72.48;101101.15;124455;1098;104618;-76
2020/12/18 07:51:19;;;;;;;41.23;25.77;;;;;;;6.64;71.37;101102.63;124466;1098;104952;-76
2020/12/18 07:53:51;;;;;;;46.53;26.63;;;;;;;6.67;71.62;101110.35;124496;1098;104522;-76
2020/12/18 07:56:18;;;;;;;;;;;;;;;6.70;71.95;101109.31;124348;1098;104609;-77
2020/12/18 07:58:49;;;;;;;41.80;23.87;;;;;;;6.68;71.62;101112.06;124455;1097;104583;-76
2020/12/18 08:01:19;;;;;;;35.15;21.05;;;;;;;6.69;71.62;101108.44;124523;1098;105053;-76
2020/12/18 08:03:50;;;;;;;33.67;20.50;;;;;;;6.73;71.69;101113.55;124446;1098;104564;-77
2020/12/18 08:06:20;;;;;;;34.23;21.17;;;;;;;6.78;71.55;101108.78;124435;1098;104506;-76
2020/12/18 08:08:54;;;;;;;36.30;21.53;;;;;;;6.83;71.61;101109.28;124457;1098;104944;-76
2020/12/18 08:11:23;;;;;;;41.65;23.70;;;;;;;6.87;71.37;101116.94;124484;1098;104624;-76
2020/12/18 08:13:52;;;;;;;164.07;95.33;;;;;;;6.92;72.28;101105.98;124501;1098;104590;-76
2020/12/18 08:16:21;;;;;;;78.37;46.90;;;;;;;6.91;71.49;101114.92;124494;1098;104519;-77
2020/12/18 08:18:57;;;;;;;65.27;39.13;;;;;;;6.94;72.20;101122.64;124441;1098;104509;-78
2020/12/18 08:21:27;;;;;;;67.83;38.07;;;;;;;6.93;71.98;101120.96;124456;1093;104914;-76
2020/12/18 08:24:02;;;;;;;52.50;32.17;;;;;;;6.95;72.28;101113.73;124517;1090;105041;-77
2020/12/18 08:26:37;;;;;;;81.40;46.47;;;;;;;7.00;72.26;101114.23;125548;1090;104733;-76
2020/12/18 08:29:07;;;;;;;85.75;55.10;;;;;;;7.07;72.52;101119.98;124555;1098;104602;-76
2020/12/18 08:31:43;;;;;;;59.67;36.13;;;;;;;7.08;71.63;101125.18;124557;1093;104583;-78
2020/12/18 08:34:15;;;;;;;46.73;27.70;;;;;;;7.13;72.44;101121.34;124433;1098;104578;-78
2020/12/18 08:36:45;;;;;;;46.18;27.37;;;;;;;7.14;71.30;101123.03;124383;1098;104529;-78
2020/12/18 08:39:15;;;;;;;55.90;35.40;;;;;;;7.12;72.23;101117.86;124470;1098;104499;-85
2020/12/18 08:41:45;;;;;;;42.33;25.50;;;;;;;7.14;71.65;101120.38;124469;1098;104970;-78
2020/12/18 08:44:16;;;;;;;38.33;23.33;;;;;;;7.19;72.16;101120.91;124474;1098;104586;-77
2020/12/18 08:46:45;;;;;;;41.85;26.93;;;;;;;7.24;71.61;101122.27;124435;1098;104647;-76
2020/12/18 08:49:17;;;;;;;40.47;26.90;;;;;;;7.27;72.16;101118.53;124538;1098;104571;-76
2020/12/18 08:51:46;;;;;;;41.60;26.20;;;;;;;7.31;72.34;101124.48;124509;1098;104613;-75
2020/12/18 08:54:25;;;;;;;45.93;29.07;;;;;;;7.32;71.58;101121.72;124471;1098;104562;-77
2020/12/18 08:57:17;;;;;;;44.83;29.90;;;;;;;7.39;71.37;101122.98;124440;1098;104557;-76
2020/12/18 09:00:10;;;;;;;41.28;26.33;;;;;;;7.43;71.64;101129.77;124438;1097;104496;-76
2020/12/18 09:02:40;;;;;;;52.30;33.80;;;;;;;7.47;71.72;101131.23;124459;1097;104928;-77
2020/12/18 09:05:18;;;;;;;39.83;26.53;;;;;;;7.48;71.59;101138.22;124449;1097;104529;-75
2020/12/18 09:07:53;;;;;;;37.83;23.90;;;;;;;7.49;72.22;101136.44;124443;1098;104583;-76
2020/12/18 09:10:42;;;;;;;40.95;25.50;;;;;;;7.51;70.89;101131.86;124442;1098;104571;-76
2020/12/18 09:13:14;;;;;;;37.17;23.43;;;;;;;7.53;71.21;101137.06;124422;1097;104650;-75
2020/12/18 09:15:45;;;;;;;38.10;24.60;;;;;;;7.54;71.29;101138.74;124547;1097;104538;-77
2020/12/18 09:18:14;;;;;;;39.70;24.00;;;;;;;7.58;71.92;101138.43;124532;1097;104565;-75
2020/12/18 09:20:44;;;;;;;40.20;25.47;;;;;;;7.62;71.73;101141.68;124496;1097;105364;-76
2020/12/18 09:23:14;;;;;;;42.17;27.80;;;;;;;7.66;71.43;101143.18;124409;1098;104706;-76
2020/12/18 09:25:44;;;;;;;39.23;25.17;;;;;;;7.62;71.02;101139.02;124413;1097;104570;-76
2020/12/18 09:28:17;;;;;;;37.80;24.07;;;;;;;7.56;71.25;101131.52;124405;1098;104484;-76
2020/12/18 09:30:50;;;;;;;40.37;25.80;;;;;;;7.56;71.19;101134.17;124404;1098;104644;-75
2020/12/18 09:33:30;;;;;;;37.80;23.87;;;;;;;7.59;71.69;101136.61;124509;1098;104627;-78
2020/12/18 09:36:07;;;;;;;39.37;25.50;;;;;;;7.62;71.83;101131.93;124489;1098;104492;-75
2020/12/18 09:38:38;;;;;;;48.40;29.60;;;;;;;7.65;71.07;101138.81;124379;1098;104594;-77
2020/12/18 09:41:08;;;;;;;38.30;24.87;;;;;;;7.66;70.61;101137.87;124491;1098;104509;-77
2020/12/18 09:43:36;;;;;;;34.80;21.60;;;;;;;7.63;72.02;101140.73;124505;1097;104627;-76
2020/12/18 09:46:11;;;;;;;81.60;49.97;;;;;;;7.64;71.30;101147.73;124429;1098;104651;-76
2020/12/18 09:48:39;;;;;;;66.67;35.50;;;;;;;7.64;71.24;101147.73;124398;1098;104519;-75
2020/12/18 09:51:08;;;;;;;233.33;150.30;;;;;;;7.64;71.93;101153.04;124416;1098;104595;-76
2020/12/18 09:53:37;;;;;;;195.60;123.40;;;;;;;7.67;71.10;101150.17;124461;1097;104915;-75
2020/12/18 09:56:07;;;;;;;61.90;37.80;;;;;;;7.71;71.04;101148.14;124430;1098;104515;-75
2020/12/18 09:58:35;;;;;;;61.50;38.50;;;;;;;7.73;71.73;101141.75;124417;1098;104519;-76
2020/12/18 10:01:03;;;;;;;71.40;47.63;;;;;;;7.76;71.77;101141.53;124384;1097;104901;-76
2020/12/18 10:03:32;;;;;;;47.47;32.10;;;;;;;7.79;71.13;101145.77;124446;1098;104685;-78
2020/12/18 10:06:00;;;;;;;36.83;23.60;;;;;;;7.82;70.89;101141.08;124455;1098;104620;-77
2020/12/18 10:08:30;;;;;;;134.47;91.20;;;;;;;7.88;71.39;101144.25;124531;1090;104520;-75
2020/12/18 10:10:58;;;;;;;72.00;45.13;;;;;;;7.92;71.34;101140.39;124520;1090;104503;-76
2020/12/18 10:13:26;;;;;;;49.30;32.03;;;;;;;7.95;71.46;101145.47;124483;1090;104609;-76
2020/12/18 10:15:54;;;;;;;54.07;31.83;;;;;;;7.95;71.18;101146.34;124443;1098;104567;-76
2020/12/18 10:18:22;;;;;;;62.63;40.43;;;;;;;7.99;71.49;101154.94;124430;1098;104554;-74
2020/12/18 10:20:50;;;;;;;44.70;27.15;;;;;;;8.04;71.55;101155.42;124430;1098;104525;-77
2020/12/18 10:23:19;;;;;;;46.77;27.30;;;;;;;8.05;71.30;101157.97;124439;1098;104619;-75
2020/12/18 10:25:47;;;;;;;39.65;26.55;;;;;;;8.04;71.33;101156.29;124424;1098;104573;-75
2020/12/18 10:28:15;;;;;;;41.90;27.33;;;;;;;8.07;71.38;101155.20;124409;1098;104650;-75
2020/12/18 10:30:43;;;;;;;49.30;31.10;;;;;;;8.11;70.73;101161.14;124416;1090;104571;-76
2020/12/18 10:33:11;;;;;;;45.20;27.83;;;;;;;8.14;70.95;101161.77;124447;1097;104593;-78
2020/12/18 10:35:39;;;;;;;99.90;63.93;;;;;;;8.16;71.03;101151.86;124391;1097;104572;-75
2020/12/18 10:38:07;;;;;;;67.23;43.33;;;;;;;8.17;71.32;101153.54;124411;1090;104595;-77
2020/12/18 10:40:35;;;;;;;59.53;39.10;;;;;;;8.20;71.28;101155.98;124426;1090;104494;-75
2020/12/18 10:43:04;;;;;;;47.93;29.77;;;;;;;8.23;70.96;101147.75;124431;1090;104583;-76
2020/12/18 10:45:32;;;;;;;52.77;33.90;;;;;;;8.21;70.88;101151.50;124435;1098;104595;-72
2020/12/18 10:48:00;;;;;;;52.20;35.40;;;;;;;8.20;71.03;101155.98;124446;1098;104595;-71
2020/12/18 10:50:28;;;;;;;48.43;32.97;;;;;;;8.20;70.86;101145.34;124447;1098;104663;-73
2020/12/18 10:52:56;;;;;;;62.35;42.60;;;;;;;8.25;70.74;101147.64;124461;1098;104593;-74
2020/12/18 10:55:24;;;;;;;69.73;45.63;;;;;;;8.31;70.89;101148.99;124412;1098;104568;-73
2020/12/18 10:57:52;;;;;;;41.17;25.53;;;;;;;8.33;70.74;101149.72;124420;1098;104487;-73
2020/12/18 11:00:20;;;;;;;40.73;26.40;;;;;;;8.37;70.67;101144.06;124403;1098;104523;-72
2020/12/18 11:02:49;;;;;;;70.03;45.77;;;;;;;8.36;71.07;101146.84;124435;1098;104999;-74
2020/12/18 11:05:17;;;;;;;51.27;32.57;;;;;;;8.39;70.55;101149.25;124448;1098;105056;-73
2020/12/18 11:07:45;;;;;;;60.63;40.77;;;;;;;8.40;70.75;101145.64;124393;1098;104532;-72
2020/12/18 11:10:13;;;;;;;43.90;28.83;;;;;;;8.41;70.87;101142.00;124386;1098;104907;-72
2020/12/18 11:12:41;;;;;;;38.57;26.03;;;;;;;8.45;70.79;101146.17;124474;1098;104602;-73
2020/12/18 11:15:09;;;;;;;38.70;23.33;;;;;;;8.45;70.54;101143.52;124433;1098;104564;-73
2020/12/18 11:17:37;;;;;;;43.27;30.27;;;;;;;8.43;70.67;101146.28;124400;1098;104496;-73
2020/12/18 11:20:05;;;;;;;42.23;26.50;;;;;;;8.43;70.89;101142.78;124387;1098;104533;-72
2020/12/18 11:22:34;;;;;;;40.30;25.27;;;;;;;8.48;70.61;101145.92;124448;1098;104685;-74
2020/12/18 11:25:04;;;;;;;46.67;28.67;;;;;;;8.54;71.42;101142.78;124370;1098;104533;-74
2020/12/18 11:27:33;;;;;;;47.30;28.73;;;;;;;8.58;71.04;101132.76;124428;1098;104564;-74
2020/12/18 11:30:01;;;;;;;43.00;27.60;;;;;;;8.62;70.37;101145.73;124440;1098;104596;-73
2020/12/18 11:32:29;;;;;;;43.45;26.85;;;;;;;8.61;70.73;101154.66;124512;1098;104980;-73
2020/12/18 11:34:57;;;;;;;37.97;24.67;;;;;;;8.62;70.78;101143.06;124400;1098;104545;-72